Time;durP1;ratioP1;P1;durP2;ratioP2;P2;SDS_P1;SDS_P2;PMS_P1;PMS_P2;Temp;Humidity;BMP_temperature;BMP_pressure;BME280_temperature;BME280_humidity;BME280_pressure;Samples;Min_cycle;Max_cycle;Signal;HPM_P1;HPM_P2
2021/12/05 00:24:18;;;;;;;3.80;1.80;;;2.20;99.90;;;;;;5000918;28;20437;-60
2021/12/05 00:26:53;;;;;;;6.50;2.70;;;2.10;99.90;;;;;;5001246;28;20460;-60
2021/12/05 00:29:28;;;;;;;5.83;2.30;;;2.10;99.90;;;;;;5008720;28;20434;-58
2021/12/05 00:32:04;;;;;;;7.57;1.97;;;2.10;99.90;;;;;;4996853;28;20483;-59
2021/12/05 00:59:33;;;;;;;9.67;3.10;;;1.80;99.90;;;;;;5006588;28;21040;-59
2021/12/05 01:14:57;;;;;;;9.67;3.00;;;1.80;99.90;;;;;;5002105;28;20436;-57
2021/12/05 01:17:29;;;;;;;6.03;3.10;;;1.80;99.90;;;;;;5000844;28;20952;-57
2021/12/05 01:19:56;;;;;;;5.50;2.57;;;1.70;99.90;;;;;;5003273;28;20517;-60
2021/12/05 01:22:23;;;;;;;5.13;2.10;;;1.70;99.90;;;;;;5002378;28;20513;-58
2021/12/05 01:25:40;;;;;;;5.03;2.17;;;1.70;99.90;;;;;;4999537;28;20439;-60
2021/12/05 01:27:47;;;;;;;2.80;1.97;;;1.60;99.90;;;;;;4994857;28;20910;-59
2021/12/05 01:30:31;;;;;;;4.23;1.90;;;1.60;99.90;;;;;;5003614;28;20581;-60
2021/12/05 01:33:12;;;;;;;4.53;1.83;;;1.60;99.90;;;;;;5003793;28;20461;-59
2021/12/05 01:59:02;;;;;;;2.30;1.87;;;1.80;99.90;;;;;;5004992;28;20439;-59
2021/12/05 02:39:18;;;;;;;2.90;2.27;;;1.90;99.90;;;;;;5008091;28;20483;-59
2021/12/05 02:41:47;;;;;;;2.23;2.03;;;1.80;99.90;;;;;;5009996;28;20503;-60
2021/12/05 02:44:21;;;;;;;5.23;2.20;;;1.90;99.90;;;;;;5007049;28;20437;-59
2021/12/05 02:47:02;;;;;;;4.10;2.57;;;1.80;99.90;;;;;;5006200;28;20541;-59
2021/12/05 02:49:31;;;;;;;3.53;2.40;;;1.90;99.90;;;;;;5001033;28;20464;-59
2021/12/05 02:52:01;;;;;;;4.70;2.77;;;1.90;99.90;;;;;;5007612;28;20438;-59
2021/12/05 02:54:32;;;;;;;5.30;2.40;;;1.90;99.90;;;;;;5008701;28;20746;-59
2021/12/05 02:56:59;;;;;;;2.63;1.83;;;1.80;99.90;;;;;;5007050;28;20442;-59
2021/12/05 03:02:06;;;;;;;2.70;2.27;;;1.80;99.90;;;;;;5032407;28;20422;-64
2021/12/05 03:04:33;;;;;;;3.00;2.00;;;1.90;99.90;;;;;;5024419;28;20577;-64
2021/12/05 03:07:04;;;;;;;2.47;2.00;;;1.90;99.90;;;;;;5024664;28;21009;-58
2021/12/05 03:09:30;;;;;;;7.10;4.03;;;1.80;99.90;;;;;;5015104;28;20471;-61
2021/12/05 03:11:56;;;;;;;3.53;2.03;;;1.90;99.90;;;;;;5029726;28;20442;-63
2021/12/05 03:14:22;;;;;;;4.80;2.20;;;1.80;99.90;;;;;;5013877;28;20727;-64
2021/12/05 03:16:48;;;;;;;3.10;2.00;;;1.80;99.90;;;;;;5022236;28;20203;-62
2021/12/05 03:19:15;;;;;;;3.50;2.00;;;1.80;99.90;;;;;;5025697;28;20963;-63
2021/12/05 03:21:42;;;;;;;1.90;1.80;;;1.80;99.90;;;;;;5015149;28;20456;-60
2021/12/05 03:24:10;;;;;;;2.10;1.90;;;1.80;99.90;;;;;;5006283;28;20429;-60
2021/12/05 03:26:39;;;;;;;2.40;2.20;;;1.80;99.90;;;;;;5006873;28;20448;-60
2021/12/05 03:29:07;;;;;;;3.43;2.47;;;1.80;99.90;;;;;;5005603;28;20439;-60
2021/12/05 03:31:34;;;;;;;2.07;1.97;;;1.80;99.90;;;;;;5008919;28;20422;-61
2021/12/05 03:34:01;;;;;;;2.70;1.87;;;1.80;99.90;;;;;;5018395;28;20467;-63
2021/12/05 03:36:27;;;;;;;5.43;2.43;;;1.80;99.90;;;;;;5008992;28;20446;-59
2021/12/05 03:38:53;;;;;;;2.47;2.27;;;1.80;99.90;;;;;;5008419;28;20433;-60
2021/12/05 03:41:19;;;;;;;2.93;2.40;;;1.80;99.90;;;;;;5006708;28;20430;-59
2021/12/05 03:43:48;;;;;;;3.20;1.80;;;1.80;99.90;;;;;;5005708;28;20669;-59
2021/12/05 03:46:15;;;;;;;2.40;2.20;;;1.80;99.90;;;;;;5004984;28;20520;-60
2021/12/05 03:48:45;;;;;;;4.37;2.47;;;1.80;99.90;;;;;;5007331;28;20429;-60
2021/12/05 03:51:15;;;;;;;10.43;2.87;;;1.80;99.90;;;;;;5005710;28;20447;-60
2021/12/05 03:53:41;;;;;;;3.87;2.87;;;1.90;99.90;;;;;;5021443;28;20462;-61
2021/12/05 03:56:08;;;;;;;7.97;2.63;;;1.90;99.90;;;;;;4998571;28;20501;-59
2021/12/05 03:58:36;;;;;;;7.03;2.53;;;1.80;99.90;;;;;;5006941;28;20422;-57
2021/12/05 04:01:05;;;;;;;4.10;2.37;;;1.80;99.90;;;;;;5007040;28;20414;-59
2021/12/05 04:03:31;;;;;;;3.20;2.33;;;1.90;99.90;;;;;;5006312;28;20534;-62
2021/12/05 04:05:59;;;;;;;5.17;2.43;;;1.90;99.90;;;;;;5000851;28;20450;-60
2021/12/05 04:08:27;;;;;;;3.97;2.27;;;1.90;99.90;;;;;;5004937;28;20436;-63
2021/12/05 04:10:58;;;;;;;3.77;2.53;;;1.90;99.90;;;;;;5005618;28;20922;-60
2021/12/05 04:13:24;;;;;;;2.80;2.40;;;1.90;99.90;;;;;;4994497;28;20934;-59
2021/12/05 04:15:53;;;;;;;6.07;2.57;;;1.90;99.90;;;;;;5005913;28;20421;-58
2021/12/05 04:18:19;;;;;;;6.37;2.70;;;1.90;99.90;;;;;;5005836;28;20530;-59
2021/12/05 04:20:45;;;;;;;3.73;2.20;;;1.90;99.90;;;;;;5009829;28;20459;-60
2021/12/05 04:23:11;;;;;;;5.90;2.97;;;1.90;99.90;;;;;;5006830;28;20417;-59
2021/12/05 04:25:38;;;;;;;3.53;2.87;;;1.90;99.90;;;;;;5003028;28;20514;-61
2021/12/05 04:28:06;;;;;;;3.23;2.33;;;1.90;99.90;;;;;;5005865;28;20754;-60
2021/12/05 04:30:33;;;;;;;5.33;2.80;;;1.90;99.90;;;;;;5002179;28;20528;-62
2021/12/05 04:32:59;;;;;;;5.70;2.87;;;1.90;99.90;;;;;;5007379;28;20995;-59
2021/12/05 04:35:25;;;;;;;5.20;3.33;;;1.90;99.90;;;;;;5006557;28;20862;-59
2021/12/05 04:37:51;;;;;;;3.30;2.93;;;2.00;99.90;;;;;;5006447;28;20934;-60
2021/12/05 04:40:17;;;;;;;4.47;2.50;;;1.90;99.90;;;;;;5003851;28;20469;-60
2021/12/05 04:42:43;;;;;;;3.17;2.67;;;1.90;99.90;;;;;;4998935;28;20432;-58
2021/12/05 04:45:17;;;;;;;4.30;2.30;;;1.90;99.90;;;;;;5003438;28;20439;-62
2021/12/05 04:47:44;;;;;;;5.13;2.50;;;1.90;99.90;;;;;;5014341;28;20480;-58
2021/12/05 04:50:10;;;;;;;4.47;2.43;;;1.90;99.90;;;;;;5010788;28;20442;-59
2021/12/05 04:52:37;;;;;;;5.60;2.23;;;1.90;99.90;;;;;;5009758;28;20531;-58
2021/12/05 04:55:05;;;;;;;2.17;1.83;;;1.90;99.90;;;;;;4996855;28;20436;-60
2021/12/05 04:57:31;;;;;;;2.63;1.90;;;1.90;99.90;;;;;;4992639;28;20547;-59
2021/12/05 04:59:57;;;;;;;3.63;1.90;;;1.90;99.90;;;;;;4998086;28;20972;-57
2021/12/05 05:02:23;;;;;;;2.50;2.30;;;1.80;99.90;;;;;;5000652;28;20639;-57
2021/12/05 05:04:49;;;;;;;4.60;2.53;;;1.80;99.90;;;;;;5002679;28;20267;-57
2021/12/05 05:07:24;;;;;;;2.67;2.00;;;1.90;99.90;;;;;;5000134;28;20221;-58
2021/12/05 05:09:53;;;;;;;1.77;1.67;;;1.90;99.90;;;;;;5004195;28;20851;-59
2021/12/05 05:12:19;;;;;;;3.60;2.20;;;1.80;99.90;;;;;;5005182;28;20477;-59
2021/12/05 05:14:45;;;;;;;3.23;1.83;;;1.90;99.90;;;;;;5004560;28;20442;-59
2021/12/05 05:17:12;;;;;;;2.33;1.70;;;1.90;99.90;;;;;;4998409;28;21024;-59
2021/12/05 05:19:45;;;;;;;2.80;1.97;;;1.80;99.90;;;;;;4993292;28;20964;-58
2021/12/05 05:41:54;;;;;;;2.03;1.83;;;1.80;99.90;;;;;;4995350;28;20697;-58
2021/12/05 05:46:24;;;;;;;5.53;2.00;;;1.80;99.90;;;;;;5019623;28;20463;-59
2021/12/05 05:48:56;;;;;;;2.07;1.87;;;1.80;99.90;;;;;;5013197;28;20194;-60
2021/12/05 05:51:22;;;;;;;5.43;1.80;;;1.80;99.90;;;;;;5011522;28;20474;-59
2021/12/05 05:53:48;;;;;;;3.57;1.70;;;1.80;99.90;;;;;;5008380;28;20542;-58
2021/12/05 05:56:20;;;;;;;2.90;2.00;;;1.80;99.90;;;;;;5012753;28;20284;-60
2021/12/05 05:58:53;;;;;;;2.10;1.80;;;1.80;99.90;;;;;;5009830;28;20425;-59
2021/12/05 06:01:59;;;;;;;3.40;1.80;;;1.80;99.90;;;;;;5008368;28;20835;-59
2021/12/05 06:04:07;;;;;;;4.37;2.10;;;1.80;99.90;;;;;;4998387;28;20409;-59
2021/12/05 06:06:33;;;;;;;4.70;1.63;;;1.80;99.90;;;;;;5005243;28;20456;-59
2021/12/05 06:09:00;;;;;;;2.57;1.60;;;1.80;99.90;;;;;;5004027;28;20832;-57
2021/12/05 06:11:26;;;;;;;3.10;1.30;;;1.80;99.90;;;;;;5008900;28;20461;-59
2021/12/05 06:13:53;;;;;;;7.37;2.07;;;1.80;99.90;;;;;;5005234;28;20544;-57
2021/12/05 06:16:19;;;;;;;2.20;1.70;;;1.80;99.90;;;;;;5004185;28;20460;-60
2021/12/05 06:18:46;;;;;;;2.60;1.63;;;1.80;99.90;;;;;;5007571;28;20529;-59
2021/12/05 06:21:14;;;;;;;2.20;1.97;;;1.80;99.90;;;;;;5019317;28;20786;-59
2021/12/05 06:23:40;;;;;;;4.40;1.50;;;1.80;99.90;;;;;;5006297;28;20995;-59
2021/12/05 06:26:09;;;;;;;3.93;2.00;;;1.80;99.90;;;;;;5003060;28;20696;-59
2021/12/05 06:28:40;;;;;;;4.03;2.00;;;1.80;99.90;;;;;;5003966;28;20828;-56
2021/12/05 06:47:36;;;;;;;6.80;2.00;;;1.80;99.90;;;;;;5007672;28;20536;-59
2021/12/05 06:50:04;;;;;;;6.73;2.87;;;1.80;99.90;;;;;;5007085;28;20469;-60
2021/12/05 06:52:30;;;;;;;3.40;1.90;;;1.80;99.90;;;;;;5005449;28;20459;-56
2021/12/05 06:54:56;;;;;;;7.40;3.57;;;1.80;99.90;;;;;;5002765;28;20463;-60
2021/12/05 06:57:22;;;;;;;4.60;2.83;;;1.70;99.90;;;;;;5004965;28;20548;-57
2021/12/05 06:59:49;;;;;;;6.37;3.13;;;1.80;99.90;;;;;;5005448;28;20204;-59
2021/12/05 07:02:17;;;;;;;9.73;3.80;;;1.80;99.90;;;;;;5001922;28;20440;-58
2021/12/05 07:05:09;;;;;;;8.33;4.70;;;1.80;99.90;;;;;;5006362;28;20510;-57
2021/12/05 07:07:38;;;;;;;4.33;3.67;;;1.80;99.90;;;;;;5025184;28;20444;-61
2021/12/05 07:10:07;;;;;;;10.63;3.37;;;1.80;99.90;;;;;;5030285;28;20541;-61
2021/12/05 07:15:07;;;;;;;5.33;3.60;;;1.80;99.90;;;;;;5017005;28;20816;-60
2021/12/05 07:23:04;;;;;;;4.53;2.47;;;1.80;99.90;;;;;;5003505;28;20246;-59
2021/12/05 07:25:29;;;;;;;2.90;2.60;;;1.70;99.90;;;;;;5004177;28;20445;-59
2021/12/05 07:44:11;;;;;;;7.83;4.43;;;1.80;99.90;;;;;;5005526;28;20486;-58
2021/12/05 07:46:38;;;;;;;6.57;4.57;;;1.80;99.90;;;;;;5006052;28;20843;-58
2021/12/05 07:49:07;;;;;;;13.60;8.07;;;1.80;99.90;;;;;;5006406;28;20635;-58
2021/12/05 07:51:38;;;;;;;11.20;4.37;;;1.80;99.90;;;;;;5005121;28;20450;-57
2021/12/05 07:54:27;;;;;;;6.60;3.87;;;1.80;99.90;;;;;;5006275;28;20600;-57
2021/12/05 08:16:08;;;;;;;11.87;6.43;;;2.00;99.90;;;;;;5001952;28;22525;-58
2021/12/05 08:18:34;;;;;;;8.20;5.40;;;2.10;99.90;;;;;;5003759;28;20418;-57
2021/12/05 08:21:02;;;;;;;5.90;4.00;;;2.10;99.90;;;;;;5003988;28;20840;-57
2021/12/05 08:23:28;;;;;;;9.50;3.60;;;2.10;99.90;;;;;;5013247;28;20268;-59
2021/12/05 08:26:10;;;;;;;4.70;2.80;;;2.10;99.90;;;;;;5004578;28;20545;-55
2021/12/05 08:31:17;;;;;;;4.50;3.17;;;2.10;99.90;;;;;;5004988;28;20488;-58
2021/12/05 08:33:57;;;;;;;4.63;3.27;;;2.10;99.90;;;;;;5007003;28;20485;-57
2021/12/05 09:31:03;;;;;;;9.50;3.23;;;2.60;99.90;;;;;;5000604;28;20490;-57
2021/12/05 10:11:41;;;;;;;;;;;;;;;;;;;;;
2021/12/05 10:20:17;;;;;;;2.83;2.63;;;4.30;99.90;;;;;;5001941;28;20428;-57
2021/12/05 10:33:41;;;;;;;5.83;3.10;;;4.80;99.90;;;;;;5009213;28;20481;-56
2021/12/05 10:36:10;;;;;;;8.40;4.27;;;4.90;99.90;;;;;;5003639;28;20459;-58
2021/12/05 10:38:44;;;;;;;7.57;3.03;;;5.00;99.90;;;;;;4999553;28;20443;-56
2021/12/05 10:41:45;;;;;;;5.20;2.30;;;5.10;99.90;;;;;;4999923;28;20455;-56
2021/12/05 10:44:10;;;;;;;8.70;3.40;;;5.20;99.90;;;;;;5000297;28;20431;-55
2021/12/05 10:46:39;;;;;;;10.47;3.40;;;5.20;99.90;;;;;;5004190;28;20477;-56
2021/12/05 10:49:15;;;;;;;5.83;2.73;;;5.40;99.90;;;;;;4993867;28;20526;-57
2021/12/05 10:51:45;;;;;;;4.37;2.60;;;5.50;99.90;;;;;;5003961;28;20582;-57
2021/12/05 10:54:24;;;;;;;5.80;2.80;;;5.60;99.90;;;;;;5003791;28;21176;-59
2021/12/05 10:56:55;;;;;;;2.23;1.90;;;5.50;99.10;;;;;;5000202;28;20450;-57
2021/12/05 10:59:32;;;;;;;4.83;2.40;;;5.30;99.20;;;;;;5001151;28;21042;-57
2021/12/05 11:02:04;;;;;;;5.27;2.30;;;5.10;98.80;;;;;;5005051;28;20428;-57
2021/12/05 11:04:33;;;;;;;3.63;2.23;;;5.10;99.90;;;;;;4998676;28;20500;-57
2021/12/05 11:07:10;;;;;;;2.10;1.80;;;5.20;99.90;;;;;;5000041;28;20543;-57
2021/12/05 11:09:48;;;;;;;4.27;2.50;;;5.20;98.10;;;;;;4999454;28;20898;-57
2021/12/05 11:12:14;;;;;;;3.83;2.50;;;5.20;99.30;;;;;;5005162;28;20434;-56
2021/12/05 11:15:02;;;;;;;3.20;2.10;;;5.20;99.80;;;;;;4999462;28;20529;-57
2021/12/05 11:17:30;;;;;;;4.40;2.53;;;5.20;98.70;;;;;;4999449;28;20463;-57
2021/12/05 11:20:09;;;;;;;4.70;2.00;;;5.10;98.10;;;;;;4995938;28;20574;-56
2021/12/05 11:22:56;;;;;;;3.00;2.20;;;4.90;98.40;;;;;;4998250;28;21004;-57
2021/12/05 11:25:33;;;;;;;6.37;2.77;;;4.60;97.40;;;;;;5003727;28;20826;-58
2021/12/05 11:28:01;;;;;;;8.57;2.80;;;4.40;99.30;;;;;;4997623;28;20565;-57
2021/12/05 11:30:35;;;;;;;3.20;2.47;;;4.30;99.90;;;;;;4999133;28;20829;-58
2021/12/05 11:33:06;;;;;;;7.63;2.00;;;4.30;99.90;;;;;;4997635;28;20454;-57
2021/12/05 11:35:46;;;;;;;4.37;2.63;;;4.40;99.90;;;;;;4996954;28;20801;-57
2021/12/05 11:38:19;;;;;;;4.00;2.60;;;4.40;99.90;;;;;;4998131;28;20431;-59
2021/12/05 11:41:02;;;;;;;2.20;1.93;;;4.30;99.90;;;;;;5003327;28;20461;-56
2021/12/05 11:43:37;;;;;;;3.57;1.90;;;4.20;99.90;;;;;;4994451;28;21275;-57
2021/12/05 11:46:31;;;;;;;2.53;2.10;;;4.20;99.90;;;;;;4990850;28;21161;-57
2021/12/05 11:49:06;;;;;;;5.73;2.13;;;4.20;99.90;;;;;;5005643;28;20432;-57
2021/12/05 11:51:34;;;;;;;3.17;1.60;;;4.20;99.90;;;;;;4989863;28;20454;-55
2021/12/05 11:54:12;;;;;;;5.10;2.10;;;4.20;99.90;;;;;;4999972;28;20474;-57
2021/12/05 11:56:42;;;;;;;4.70;1.80;;;4.20;99.90;;;;;;4982003;28;20463;-56
2021/12/05 11:59:12;;;;;;;2.80;2.13;;;4.20;99.90;;;;;;4995490;28;20427;-57
2021/12/05 12:01:52;;;;;;;2.63;2.10;;;4.20;99.90;;;;;;4994586;28;20516;-59
2021/12/05 12:04:24;;;;;;;2.43;1.80;;;4.20;99.80;;;;;;4998220;28;20501;-57
2021/12/05 12:07:09;;;;;;;9.73;2.90;;;4.30;99.90;;;;;;4996252;28;20463;-56
2021/12/05 12:09:35;;;;;;;5.63;2.60;;;4.20;99.70;;;;;;4994711;28;20435;-58
2021/12/05 12:12:01;;;;;;;4.27;2.07;;;4.20;99.90;;;;;;5002741;28;20427;-59
2021/12/05 12:14:27;;;;;;;4.77;1.90;;;4.20;99.90;;;;;;5000367;28;20504;-58
2021/12/05 12:16:53;;;;;;;2.00;1.53;;;4.20;99.90;;;;;;4996783;28;20208;-57
2021/12/05 12:19:22;;;;;;;3.63;1.80;;;4.20;99.90;;;;;;5001058;28;20442;-57
2021/12/05 12:21:50;;;;;;;3.23;2.00;;;4.10;99.80;;;;;;5001990;28;20428;-58
2021/12/05 12:24:17;;;;;;;2.50;1.50;;;4.10;99.90;;;;;;4999200;28;20531;-59
2021/12/05 12:26:44;;;;;;;2.80;2.17;;;4.20;99.90;;;;;;4999416;28;20451;-58
2021/12/05 12:29:12;;;;;;;2.83;2.13;;;4.20;99.80;;;;;;5000526;28;20434;-58
2021/12/05 12:31:41;;;;;;;2.13;1.93;;;4.20;98.80;;;;;;4999105;28;20420;-59
2021/12/05 12:34:11;;;;;;;3.50;2.00;;;4.10;99.50;;;;;;5008555;28;21038;-60
2021/12/05 12:36:42;;;;;;;5.30;2.20;;;4.10;99.80;;;;;;5004018;28;20451;-57
2021/12/05 12:39:17;;;;;;;6.73;2.20;;;4.00;99.90;;;;;;5006543;28;20403;-56
2021/12/05 12:42:01;;;;;;;5.00;2.30;;;3.90;99.90;;;;;;5000075;28;20450;-59
2021/12/05 12:44:27;;;;;;;3.53;2.20;;;3.90;99.90;;;;;;4997229;28;20509;-59
2021/12/05 12:47:02;;;;;;;3.20;2.00;;;3.90;99.90;;;;;;5010019;28;21463;-57
2021/12/05 12:49:30;;;;;;;6.30;2.53;;;3.90;99.90;;;;;;4997322;28;20168;-56
2021/12/05 12:51:59;;;;;;;7.57;2.00;;;4.00;99.90;;;;;;5018611;28;20446;-58
2021/12/05 12:54:30;;;;;;;3.60;2.10;;;4.00;99.90;;;;;;5000449;28;20826;-59
2021/12/05 12:57:26;;;;;;;2.30;1.90;;;4.00;99.90;;;;;;4996985;28;21021;-58
2021/12/05 13:00:12;;;;;;;3.80;2.27;;;3.90;99.90;;;;;;4999354;28;20462;-60
2021/12/05 13:11:17;;;;;;;6.40;2.27;;;4.00;99.90;;;;;;4993162;28;20457;-61
2021/12/05 13:13:45;;;;;;;5.93;2.33;;;4.00;99.90;;;;;;5001705;28;20507;-61
2021/12/05 13:16:16;;;;;;;5.00;2.80;;;4.10;99.90;;;;;;5001771;28;20543;-58
2021/12/05 13:18:45;;;;;;;2.00;1.70;;;4.10;99.90;;;;;;4998882;28;20450;-59
2021/12/05 13:21:38;;;;;;;5.50;2.20;;;4.20;99.90;;;;;;4995851;28;20571;-58
2021/12/05 13:24:25;;;;;;;5.30;2.50;;;4.50;99.90;;;;;;4989945;28;20485;-55
2021/12/05 13:27:01;;;;;;;3.70;2.63;;;4.70;99.10;;;;;;4991762;28;21129;-58
2021/12/05 13:29:29;;;;;;;7.93;3.07;;;4.90;98.20;;;;;;4999324;28;20442;-61
2021/12/05 13:32:24;;;;;;;4.63;2.10;;;4.90;97.90;;;;;;4998514;28;20439;-60
2021/12/05 13:34:56;;;;;;;4.43;2.00;;;5.00;97.10;;;;;;5011935;28;20888;-56
2021/12/05 13:37:29;;;;;;;5.63;2.30;;;5.00;96.60;;;;;;5001666;28;20484;-57
2021/12/05 13:40:19;;;;;;;1.93;1.70;;;4.90;95.00;;;;;;4993346;28;20479;-59
2021/12/05 13:43:09;;;;;;;2.03;1.30;;;4.90;95.20;;;;;;4999071;28;20443;-53
2021/12/05 13:45:41;;;;;;;2.20;1.73;;;4.80;94.20;;;;;;4999448;28;20438;-56
2021/12/05 13:48:18;;;;;;;2.43;1.93;;;4.70;94.70;;;;;;5007809;28;20430;-55
2021/12/05 13:51:04;;;;;;;1.67;1.50;;;4.50;94.60;;;;;;5002877;28;20450;-57
2021/12/05 13:53:50;;;;;;;3.10;2.00;;;4.40;94.90;;;;;;5004485;28;20466;-56
2021/12/05 13:56:24;;;;;;;8.67;2.50;;;4.30;96.00;;;;;;4998331;28;20439;-55
2021/12/05 13:58:56;;;;;;;4.60;1.90;;;4.20;96.60;;;;;;4998107;28;20419;-59
2021/12/05 14:01:28;;;;;;;3.60;1.60;;;4.10;97.30;;;;;;5000563;28;20485;-58
2021/12/05 14:03:53;;;;;;;4.70;2.53;;;4.00;97.60;;;;;;5004466;28;20422;-53
2021/12/05 14:06:43;;;;;;;3.33;2.07;;;3.90;98.00;;;;;;4999998;28;20506;-59
2021/12/05 14:09:22;;;;;;;7.57;2.47;;;3.90;98.60;;;;;;4998083;28;20173;-58
2021/12/05 14:12:01;;;;;;;4.97;2.70;;;3.90;99.00;;;;;;4996156;28;20525;-58
2021/12/05 14:14:37;;;;;;;3.17;2.37;;;3.80;99.40;;;;;;4998775;28;20505;-57
2021/12/05 14:17:13;;;;;;;3.93;2.53;;;3.80;99.60;;;;;;4992586;28;20459;-56
2021/12/05 14:19:41;;;;;;;4.83;3.00;;;3.80;99.90;;;;;;4996303;28;20462;-59
2021/12/05 14:22:10;;;;;;;3.90;2.80;;;3.80;99.90;;;;;;5002832;28;20442;-56
2021/12/05 14:24:48;;;;;;;6.60;3.80;;;3.80;99.90;;;;;;5002974;28;20459;-53
2021/12/05 14:27:20;;;;;;;6.30;2.30;;;3.80;99.90;;;;;;4999996;28;20455;-53
2021/12/05 14:29:49;;;;;;;9.20;2.40;;;3.80;99.90;;;;;;4995539;28;20431;-55
2021/12/05 14:32:21;;;;;;;6.60;3.23;;;3.80;99.90;;;;;;4999419;28;21256;-57
2021/12/05 14:34:47;;;;;;;6.17;3.83;;;3.80;99.90;;;;;;5002704;28;20445;-58
2021/12/05 14:37:17;;;;;;;7.47;3.97;;;3.80;99.90;;;;;;4995496;28;20525;-59
2021/12/05 14:39:55;;;;;;;6.50;3.90;;;3.70;99.90;;;;;;4998453;28;20634;-56
2021/12/05 14:42:27;;;;;;;3.80;3.17;;;3.70;99.90;;;;;;5003437;28;20431;-56
2021/12/05 14:44:58;;;;;;;5.40;3.20;;;3.60;99.90;;;;;;4997807;28;21122;-55
2021/12/05 14:47:30;;;;;;;4.90;3.50;;;3.60;99.90;;;;;;5004906;28;20520;-59
2021/12/05 14:50:00;;;;;;;4.73;3.33;;;3.60;99.90;;;;;;5007381;28;20435;-58
2021/12/05 14:52:33;;;;;;;4.83;2.83;;;3.50;99.90;;;;;;4998333;28;20424;-57
2021/12/05 14:55:00;;;;;;;6.83;2.73;;;3.50;99.90;;;;;;5016877;28;20722;-58
2021/12/05 14:57:29;;;;;;;5.27;3.40;;;3.50;99.90;;;;;;4998126;28;20522;-57
2021/12/05 15:00:11;;;;;;;5.97;3.50;;;3.40;99.90;;;;;;5001887;28;20461;-58
2021/12/05 15:02:37;;;;;;;8.60;3.27;;;3.40;99.90;;;;;;5018263;28;20442;-57
2021/12/05 15:05:07;;;;;;;5.33;3.30;;;3.40;99.90;;;;;;5003551;28;20896;-57
2021/12/05 15:07:33;;;;;;;5.33;3.10;;;3.40;99.90;;;;;;4997401;28;20470;-57
2021/12/05 15:09:59;;;;;;;5.03;3.30;;;3.40;99.90;;;;;;4996801;28;20450;-56
2021/12/05 15:12:28;;;;;;;7.43;4.43;;;3.30;99.90;;;;;;4992754;28;20702;-56
2021/12/05 15:14:57;;;;;;;6.97;3.33;;;3.30;99.90;;;;;;4996108;28;20435;-59
2021/12/05 15:17:36;;;;;;;7.53;4.30;;;3.30;99.90;;;;;;5004249;28;20439;-57
2021/12/05 15:20:16;;;;;;;8.43;4.83;;;3.30;99.90;;;;;;4998105;28;20967;-57
2021/12/05 15:22:45;;;;;;;9.37;5.93;;;3.30;99.90;;;;;;4996622;28;20448;-59
2021/12/05 15:25:14;;;;;;;8.73;4.80;;;3.20;99.90;;;;;;5014692;28;20465;-59
2021/12/05 15:27:41;;;;;;;4.20;3.60;;;3.20;99.90;;;;;;5022965;28;20455;-57
2021/12/05 15:30:19;;;;;;;6.30;3.20;;;3.20;99.90;;;;;;5024743;28;20644;-62
2021/12/05 15:32:49;;;;;;;4.93;3.33;;;3.20;99.90;;;;;;5020674;28;20461;-58
2021/12/05 15:35:18;;;;;;;10.33;3.30;;;3.10;99.90;;;;;;4998050;28;20458;-57
2021/12/05 15:37:47;;;;;;;6.70;3.53;;;3.10;99.90;;;;;;5000394;28;20997;-57
2021/12/05 15:40:14;;;;;;;6.10;3.30;;;3.00;99.90;;;;;;5007234;28;20420;-58
2021/12/05 15:42:40;;;;;;;5.83;3.93;;;3.00;99.90;;;;;;5025126;28;20424;-60
2021/12/05 15:45:10;;;;;;;6.40;3.10;;;3.00;99.90;;;;;;5020349;28;20423;-60
2021/12/05 15:47:37;;;;;;;4.63;4.13;;;3.00;99.90;;;;;;5003450;28;20223;-56
2021/12/05 15:50:11;;;;;;;7.10;5.07;;;3.00;99.90;;;;;;4996582;28;20967;-57
2021/12/05 15:52:44;;;;;;;4.87;4.07;;;3.00;99.90;;;;;;5001785;28;20428;-58
2021/12/05 15:55:24;;;;;;;4.53;3.30;;;2.90;99.90;;;;;;5000343;28;20432;-60
2021/12/05 15:57:55;;;;;;;2.87;2.60;;;2.90;99.90;;;;;;4994505;28;20470;-59
2021/12/05 16:00:31;;;;;;;3.17;2.50;;;2.90;99.90;;;;;;4996119;28;20488;-59
2021/12/05 16:03:07;;;;;;;4.13;3.10;;;2.90;99.90;;;;;;5001635;28;20475;-59
2021/12/05 16:05:36;;;;;;;5.90;3.80;;;2.80;99.90;;;;;;4997193;28;20502;-60
2021/12/05 16:08:06;;;;;;;8.63;5.33;;;2.80;99.90;;;;;;4999121;28;20529;-58
2021/12/05 16:10:35;;;;;;;6.90;5.00;;;2.80;99.90;;;;;;4993455;28;20434;-58
2021/12/05 16:13:15;;;;;;;10.07;5.70;;;2.80;99.90;;;;;;4994409;28;20505;-56
2021/12/05 16:15:43;;;;;;;10.00;5.13;;;2.80;99.90;;;;;;5001091;28;20427;-57
2021/12/05 16:18:09;;;;;;;4.10;3.40;;;2.80;99.90;;;;;;5001875;28;20427;-57
2021/12/05 16:20:36;;;;;;;5.47;4.10;;;2.80;99.90;;;;;;4995773;28;20746;-58
2021/12/05 16:23:09;;;;;;;10.47;4.53;;;2.70;99.90;;;;;;5001026;28;20454;-62
2021/12/05 16:26:00;;;;;;;5.90;4.93;;;2.70;99.90;;;;;;4995261;28;20451;-60
2021/12/05 16:28:42;;;;;;;5.67;3.70;;;2.70;99.90;;;;;;4994085;28;20439;-59
2021/12/05 16:31:15;;;;;;;5.80;3.80;;;2.60;99.90;;;;;;4985606;28;20967;-60
2021/12/05 16:33:51;;;;;;;5.73;4.30;;;2.60;99.90;;;;;;4991536;28;20470;-58
2021/12/05 16:36:19;;;;;;;11.57;7.20;;;2.60;99.90;;;;;;5004585;28;20583;-61
2021/12/05 16:38:51;;;;;;;11.57;7.03;;;2.60;99.90;;;;;;4999296;28;20440;-59
2021/12/05 16:41:28;;;;;;;18.00;7.43;;;2.60;99.90;;;;;;4996459;28;20526;-58
2021/12/05 16:44:18;;;;;;;17.00;7.40;;;2.50;99.90;;;;;;4996619;28;20431;-58
2021/12/05 16:46:51;;;;;;;14.77;5.70;;;2.50;99.90;;;;;;4996132;28;20467;-60
2021/12/05 16:49:25;;;;;;;9.80;5.93;;;2.40;99.90;;;;;;4992580;28;20562;-60
2021/12/05 16:51:57;;;;;;;9.97;6.23;;;2.40;99.90;;;;;;5011661;28;20944;-60
2021/12/05 16:54:34;;;;;;;10.37;5.80;;;2.40;99.90;;;;;;4990917;28;20502;-62
2021/12/05 16:57:09;;;;;;;8.33;5.47;;;2.40;99.90;;;;;;5012119;28;21032;-59
2021/12/05 16:59:44;;;;;;;12.07;6.70;;;2.30;99.90;;;;;;4997502;28;20999;-58
2021/12/05 17:02:25;;;;;;;15.40;9.40;;;2.30;99.90;;;;;;4998131;28;20458;-58
2021/12/05 17:05:03;;;;;;;17.37;10.77;;;2.20;99.90;;;;;;4994037;28;20427;-59
2021/12/05 17:07:44;;;;;;;14.47;9.40;;;2.20;99.90;;;;;;4998502;28;20461;-58
2021/12/05 17:10:50;;;;;;;16.03;10.23;;;2.00;99.90;;;;;;4993881;28;20440;-60
2021/12/05 17:13:32;;;;;;;13.63;8.00;;;2.00;99.90;;;;;;4990217;28;20544;-62
2021/12/05 17:16:07;;;;;;;13.70;8.30;;;1.90;99.90;;;;;;4996576;28;20489;-61
2021/12/05 17:18:42;;;;;;;11.67;7.73;;;1.80;99.90;;;;;;5000922;28;20442;-61
2021/12/05 17:21:22;;;;;;;17.23;10.17;;;1.70;99.90;;;;;;4995592;28;21320;-58
2021/12/05 17:23:54;;;;;;;23.50;13.10;;;1.70;99.90;;;;;;5004163;28;20471;-60
2021/12/05 17:26:28;;;;;;;17.43;11.80;;;1.60;99.90;;;;;;5002203;28;20460;-58
2021/12/05 17:29:04;;;;;;;20.23;12.20;;;1.60;99.90;;;;;;5006475;28;20446;-60
2021/12/05 17:31:47;;;;;;;25.20;16.83;;;1.60;99.90;;;;;;5000328;28;20432;-58
2021/12/05 17:34:19;;;;;;;20.20;11.97;;;1.50;99.90;;;;;;5006588;28;20458;-63
2021/12/05 17:36:56;;;;;;;16.17;10.30;;;1.50;99.90;;;;;;5013917;28;20470;-60
2021/12/05 17:39:28;;;;;;;17.53;12.10;;;1.50;99.90;;;;;;5013638;28;20437;-60
2021/12/05 17:41:58;;;;;;;23.97;13.47;;;1.40;99.90;;;;;;5004019;28;21243;-58
2021/12/05 17:44:24;;;;;;;19.53;12.20;;;1.50;99.90;;;;;;5000199;28;20441;-60
2021/12/05 17:46:53;;;;;;;24.77;14.77;;;1.50;99.90;;;;;;4999486;28;20555;-60
2021/12/05 17:49:23;;;;;;;15.30;9.60;;;1.40;99.90;;;;;;5000200;28;21207;-59
2021/12/05 17:51:49;;;;;;;16.30;8.73;;;1.40;99.90;;;;;;4996872;28;20444;-60
2021/12/05 17:54:35;;;;;;;17.33;10.03;;;1.40;99.90;;;;;;4994201;28;20488;-61
2021/12/05 17:57:13;;;;;;;15.30;9.80;;;1.40;99.90;;;;;;5000218;28;20454;-58
2021/12/05 18:05:03;;;;;;;15.30;9.77;;;1.30;99.90;;;;;;5001488;28;20429;-61
2021/12/05 18:07:29;;;;;;;13.33;8.60;;;1.30;99.90;;;;;;4996727;28;21706;-62
2021/12/05 18:09:54;;;;;;;13.20;7.67;;;1.20;99.90;;;;;;4995280;28;20454;-63
2021/12/05 18:12:23;;;;;;;13.03;7.27;;;1.10;99.90;;;;;;5006482;28;20189;-60
2021/12/05 18:14:51;;;;;;;21.67;9.33;;;1.10;99.90;;;;;;5000876;28;20826;-59
2021/12/05 18:17:18;;;;;;;30.43;12.40;;;1.00;99.90;;;;;;4998265;28;20971;-61
2021/12/05 18:19:44;;;;;;;24.23;10.33;;;1.00;99.90;;;;;;4999755;28;20438;-60
2021/12/05 18:22:12;;;;;;;13.93;7.57;;;1.00;99.90;;;;;;5000524;28;20500;-62
2021/12/05 18:24:38;;;;;;;13.70;7.60;;;0.90;99.90;;;;;;4999401;28;20451;-58
2021/12/05 18:27:05;;;;;;;12.00;8.20;;;0.90;99.90;;;;;;4999437;28;20476;-62
2021/12/05 18:29:30;;;;;;;14.37;9.13;;;0.90;99.90;;;;;;4997182;28;20450;-60
2021/12/05 18:31:56;;;;;;;12.60;8.30;;;0.90;99.90;;;;;;5009891;28;20547;-59
2021/12/05 18:34:27;;;;;;;47.80;20.53;;;0.90;99.90;;;;;;5000403;28;20294;-59
2021/12/05 18:36:54;;;;;;;20.20;12.20;;;0.90;99.90;;;;;;5000311;28;20229;-59
2021/12/05 18:39:25;;;;;;;23.40;13.27;;;0.90;99.90;;;;;;4992584;28;20503;-61
2021/12/05 18:41:53;;;;;;;29.20;13.47;;;0.80;99.90;;;;;;4994293;28;20469;-62
2021/12/05 18:44:21;;;;;;;45.53;20.67;;;0.80;99.90;;;;;;4995293;28;20481;-62
2021/12/05 18:46:50;;;;;;;28.63;14.43;;;0.80;99.90;;;;;;4999365;28;20483;-61
2021/12/05 18:49:16;;;;;;;24.97;14.23;;;0.80;99.90;;;;;;4999093;28;20450;-58
2021/12/05 18:51:42;;;;;;;19.77;10.33;;;0.90;99.90;;;;;;4997306;28;20442;-60